createdAt,value
2017-10-12T15:17:06.965Z,44.54
2017-10-12T15:17:57.369Z,44.15
2017-10-12T15:18:37.812Z,44.23
2017-10-12T15:19:18.681Z,45.2
2017-10-12T15:19:59.410Z,44.45
2017-10-12T15:20:39.795Z,44.64
2017-10-12T15:21:20.657Z,44.35
2017-10-12T15:22:01.266Z,44.45
2017-10-12T15:22:41.651Z,44.15
2017-10-12T15:23:22.332Z,43.89
2017-10-12T15:24:02.947Z,43.6
2017-10-12T15:24:43.480Z,44.06
2017-10-12T15:25:23.878Z,43.79
2017-10-12T15:26:04.628Z,44.15
2017-10-12T15:26:45.077Z,43.98
2017-10-12T15:27:25.542Z,43.98
2017-10-12T15:28:06.890Z,43.77
2017-10-12T15:28:47.050Z,43.7
2017-10-12T15:29:27.767Z,43.5
2017-10-12T15:30:09.249Z,43.58
2017-10-12T15:30:49.621Z,44.54
2017-10-12T15:31:30.567Z,44.64
2017-10-12T15:32:10.887Z,45.12
2017-10-12T15:33:06.703Z,45.03
2017-10-12T15:33:47.334Z,45.41
2017-10-12T15:34:27.791Z,45
2017-10-12T15:35:08.456Z,45.87
2017-10-12T15:35:48.937Z,45.77
2017-10-12T15:36:32.943Z,45.87
2017-10-12T15:37:13.711Z,46.06
2017-10-12T15:37:54.134Z,46.25
2017-10-12T15:38:34.471Z,47.03
2017-10-12T15:39:15.058Z,46.64
2017-10-12T15:40:30.531Z,46.52
2017-10-12T15:41:12.474Z,46.62
2017-10-12T15:41:52.011Z,46.62
2017-10-12T15:42:32.638Z,47
2017-10-12T15:43:13.346Z,46.81
2017-10-12T15:43:54.104Z,47
2017-10-12T15:44:34.565Z,47.1
2017-10-12T15:45:16.190Z,47.29
2017-10-12T15:45:57.260Z,47.29
2017-10-12T15:46:37.551Z,47.49
2017-10-12T15:47:18.154Z,46.81
2017-10-12T15:47:58.673Z,47.58
2017-10-12T15:48:39.576Z,47.1
2017-10-12T15:49:20.139Z,47.49
2017-10-12T15:50:00.819Z,47.1
2017-10-12T15:50:41.461Z,47.19
2017-10-12T15:51:22.105Z,47.67
2017-10-12T15:52:03.137Z,47.87
2017-10-12T15:52:44.245Z,48.06
2017-10-12T15:53:24.365Z,48.54
2017-10-12T15:54:04.839Z,48.06
2017-10-12T15:54:45.260Z,48.64
2017-10-12T15:55:26.293Z,48.13
2017-10-12T15:56:06.546Z,48.52
2017-10-12T15:56:47.005Z,48.23
2017-10-12T15:57:27.859Z,48.33
2017-10-12T15:58:08.515Z,48.43
2017-10-12T15:58:48.780Z,48.03
2017-10-12T15:59:29.193Z,48.52
2017-10-12T16:00:09.795Z,48.52
2017-10-12T16:00:50.379Z,48.9
2017-10-12T16:01:31.042Z,48.71
2017-10-12T16:02:11.958Z,48.71
2017-10-12T16:02:53.319Z,48.9
2017-10-12T16:03:33.844Z,49.29
2017-10-12T16:04:14.415Z,48.71
2017-10-12T16:04:55.179Z,48.69
2017-10-12T16:05:35.404Z,49.55
2017-10-12T16:06:15.872Z,50.23
2017-10-12T16:06:56.760Z,49.84
2017-10-12T16:07:37.131Z,49.84
2017-10-12T16:08:17.694Z,49.55
2017-10-12T16:08:57.999Z,50.04
2017-10-12T16:09:38.472Z,50.23
2017-10-12T16:10:32.681Z,50.13
2017-10-12T16:11:24.957Z,50.1
2017-10-12T16:12:05.454Z,50.9
2017-10-12T16:12:45.917Z,50.99
2017-10-12T16:13:26.507Z,50.81
2017-10-12T16:14:06.846Z,50.61
2017-10-12T16:14:47.711Z,50.81
2017-10-12T16:15:28.800Z,50.99
2017-10-12T16:16:09.179Z,50.9
2017-10-12T16:16:49.908Z,50.68
2017-10-12T16:17:30.317Z,51.26
2017-10-12T16:18:11.167Z,51.17
2017-10-12T16:18:51.658Z,50.97
2017-10-12T16:19:32.030Z,51.74
2017-10-12T16:20:12.462Z,52.22
2017-10-12T16:20:52.953Z,52.12
2017-10-12T16:21:33.696Z,51.45
2017-10-12T16:22:15.977Z,51.91
2017-10-12T16:23:35.612Z,52.51
2017-10-12T16:24:16.330Z,52.22
2017-10-12T16:27:12.851Z,52.87
2017-10-12T16:27:54.373Z,52.48
2017-10-12T16:28:35.360Z,53.16
2017-10-12T16:29:15.934Z,53.45
2017-10-12T16:29:56.532Z,53.64
2017-10-12T16:30:37.078Z,53.54
2017-10-12T16:31:17.694Z,53.35
2017-10-12T16:31:58.136Z,53.64
2017-10-12T16:33:19.487Z,54.5
2017-10-12T16:33:59.989Z,54.31
2017-10-12T16:34:40.529Z,53.83
2017-10-12T16:35:21.086Z,54.31
2017-10-12T16:36:01.634Z,54.02
2017-10-12T16:36:42.169Z,54.31
2017-10-12T16:37:22.569Z,54.22
2017-10-12T16:38:03.505Z,54.12
2017-10-12T16:38:44.478Z,54.22
2017-10-12T16:39:25.201Z,54.02
2017-10-12T16:40:05.555Z,54.09
2017-10-12T16:40:46.173Z,54.12
2017-10-12T16:41:27.392Z,54.12
2017-10-12T16:42:10.341Z,54.19
2017-10-12T16:42:50.786Z,54.09
2017-10-12T16:43:31.196Z,54.09
2017-10-12T16:44:11.720Z,54.77
2017-10-12T16:44:52.140Z,54.47
2017-10-12T16:45:32.585Z,54.47
2017-10-12T16:46:13.017Z,54.96
2017-10-12T16:46:53.442Z,54.96
2017-10-12T16:47:33.867Z,54.86
2017-10-12T16:48:14.330Z,54.67
2017-10-12T16:48:54.782Z,55.44
2017-10-12T16:49:35.228Z,54.38
2017-10-12T16:50:15.654Z,55.34
2017-10-12T16:50:56.120Z,55.15
2017-10-12T16:51:36.539Z,55.63
2017-10-12T16:52:16.932Z,55.53
2017-10-12T16:52:57.342Z,55.91
2017-10-12T16:53:37.731Z,55.69
2017-10-12T16:54:18.296Z,55.79
2017-10-12T16:54:58.694Z,55.51
2017-10-12T16:55:39.189Z,56.08
2017-10-12T16:56:19.551Z,55.6
2017-10-12T16:56:59.938Z,56.56
2017-10-12T16:57:40.328Z,56.66
2017-10-12T16:58:20.809Z,56.76
2017-10-12T16:59:01.171Z,56.76
2017-10-12T16:59:41.602Z,56.76
2017-10-12T17:00:21.993Z,57.23
2017-10-12T17:01:02.375Z,57.33
2017-10-12T17:01:42.796Z,57.23
2017-10-12T17:02:23.225Z,57.23
2017-10-12T17:03:03.664Z,57.71
2017-10-12T17:03:44.090Z,57.78
2017-10-12T17:04:24.537Z,57.88
2017-10-12T17:05:05.043Z,57.88
2017-10-12T17:05:45.491Z,58.55
2017-10-12T17:06:25.941Z,58.07
2017-10-12T17:07:06.344Z,58.64
2017-10-12T17:07:46.810Z,59.03
2017-10-12T17:08:27.156Z,59.03
2017-10-12T17:09:07.589Z,59.09
2017-10-12T17:09:47.985Z,59
2017-10-12T17:10:28.352Z,59.19
2017-10-12T17:11:08.796Z,59
2017-10-12T17:11:49.176Z,59.48
2017-10-12T17:12:29.591Z,59.38
2017-10-12T17:13:10.200Z,59.29
2017-10-12T17:13:50.410Z,59.38
2017-10-12T17:14:30.875Z,59.67
2017-10-12T17:15:11.314Z,60.15
2017-10-12T17:15:51.694Z,60.15
2017-10-12T17:16:32.123Z,60.63
2017-10-12T17:17:12.581Z,60.72
2017-10-12T17:17:53.026Z,61.02
2017-10-12T17:18:33.502Z,60.92
2017-10-12T17:19:13.822Z,60.92
2017-10-12T17:19:54.221Z,61.18
2017-10-12T17:20:34.638Z,61.56
2017-10-12T17:21:15.110Z,61.56
2017-10-12T17:21:55.554Z,61.85
2017-10-12T17:22:35.931Z,61.66
2017-10-12T17:23:16.299Z,61.75
2017-10-12T17:23:56.745Z,62.13
2017-10-12T17:24:37.105Z,62.13
2017-10-12T17:25:17.576Z,62.13
2017-10-12T17:25:57.999Z,62.23
2017-10-12T17:26:38.381Z,62.62
2017-10-12T17:27:18.857Z,62.62
2017-10-12T17:27:59.264Z,63
2017-10-12T17:28:39.714Z,62.9
2017-10-12T17:29:20.099Z,63.19
2017-10-12T17:30:00.529Z,63.38
2017-10-12T17:30:40.959Z,63.67
2017-10-12T17:31:21.408Z,63.83
2017-10-12T17:32:01.796Z,63.83
2017-10-12T17:32:42.269Z,64.02
2017-10-12T17:33:22.719Z,64.12
2017-10-12T17:34:03.218Z,64.31
2017-10-12T17:34:43.652Z,64.4
2017-10-12T17:35:24.069Z,64.4
2017-10-12T17:36:04.544Z,64.69
2017-10-12T17:36:45.013Z,65.17
2017-10-12T17:37:25.399Z,65.46
2017-10-12T17:38:05.875Z,65.46
2017-10-12T17:38:46.317Z,65.75
2017-10-12T17:39:26.721Z,66.22
2017-10-12T17:40:07.110Z,66.03
2017-10-12T17:40:47.491Z,66.48
2017-10-12T17:41:27.912Z,66.42
2017-10-12T17:42:08.371Z,66.51
2017-10-12T17:42:48.792Z,66.99
2017-10-12T17:43:29.186Z,67.25
2017-10-12T17:44:09.666Z,66.96
2017-10-12T17:44:50.053Z,67.15
2017-10-12T17:45:30.502Z,66.96
2017-10-12T17:46:10.863Z,67.05
2017-10-12T17:46:51.284Z,67.63
2017-10-12T17:47:31.765Z,67.34
2017-10-12T17:48:12.203Z,67.63
2017-10-12T17:48:52.558Z,67.44
2017-10-12T17:49:32.998Z,67.44
2017-10-12T17:50:13.399Z,67.34
2017-10-12T17:50:53.763Z,67.15
2017-10-12T17:51:34.288Z,66.86
2017-10-12T17:52:14.679Z,66.86
2017-10-12T17:52:55.125Z,67.15
2017-10-12T17:53:35.581Z,67.05
2017-10-12T17:54:45.961Z,67.34
2017-10-12T17:54:56.424Z,67.54
2017-10-12T17:55:36.844Z,67.72
2017-10-12T17:56:17.288Z,68.21
2017-10-12T17:56:57.724Z,68.49
2017-10-12T17:57:38.117Z,68.49
2017-10-12T17:58:18.684Z,67.82
2017-10-12T17:58:59.018Z,68.3
2017-10-12T17:59:39.434Z,68.46
2017-10-12T18:00:19.890Z,68.21
2017-10-12T18:01:00.295Z,69.07
2017-10-12T18:01:40.763Z,68.74
2017-10-12T18:02:21.185Z,69.13
2017-10-12T18:03:01.625Z,69.13
2017-10-12T18:03:42.055Z,68.65
2017-10-12T18:05:02.856Z,68.74
2017-10-12T18:05:43.302Z,69.13
2017-10-12T18:06:23.622Z,68.94
2017-10-12T18:07:04.049Z,69.32
2017-10-12T18:07:44.441Z,69.23
2017-10-12T18:08:24.957Z,69.6
2017-10-12T18:09:05.403Z,69.42
2017-10-12T18:09:45.853Z,69.13
2017-10-12T18:10:26.328Z,69.51
2017-10-12T18:11:06.750Z,69.6
2017-10-12T18:12:27.621Z,69.23
2017-10-12T18:13:08.061Z,69.13
2017-10-12T18:13:48.384Z,69.8
2017-10-12T18:14:28.813Z,69.51
2017-10-12T18:15:09.270Z,69.13
2017-10-12T18:15:49.686Z,69.42
2017-10-12T18:16:30.093Z,69.7
2017-10-12T18:17:10.545Z,69.51
2017-10-12T18:17:50.917Z,69.8
2017-10-12T18:18:31.358Z,69.76
2017-10-12T18:19:11.762Z,69.6
2017-10-12T18:19:52.183Z,70.05
2017-10-12T18:20:32.548Z,69.95
2017-10-12T18:21:12.977Z,69.57
2017-10-12T18:21:53.491Z,69.86
2017-10-12T18:22:33.930Z,70.15
2017-10-12T18:23:14.325Z,70.05
2017-10-12T18:23:54.762Z,70.43
2017-10-12T18:24:35.178Z,70.91
2017-10-12T18:25:15.652Z,70.91
2017-10-12T18:25:56.146Z,71.11
2017-10-12T18:26:36.499Z,71.01
2017-10-12T18:27:16.952Z,70.81
2017-10-12T18:27:57.310Z,71.87
2017-10-12T18:28:37.851Z,71.97
2017-10-12T18:29:18.236Z,71.87
2017-10-12T18:29:58.751Z,71.97
2017-10-12T18:30:39.089Z,72.06
2017-10-12T18:31:19.578Z,72.16
2017-10-12T18:32:00.000Z,71.93
2017-10-12T18:32:40.423Z,72.31
2017-10-12T18:33:20.789Z,72.79
2017-10-12T18:34:01.171Z,72.41
2017-10-12T18:35:22.036Z,72.22
2017-10-12T18:36:02.465Z,72.69
2017-10-12T18:36:43.051Z,72.5
2017-10-12T18:37:23.414Z,72.88
2017-10-12T18:38:03.861Z,72.31
2017-10-12T18:38:44.229Z,72.22
2017-10-12T18:39:24.653Z,72.02
2017-10-12T18:40:05.059Z,72.79
2017-10-12T18:40:45.445Z,73.17
2017-10-12T18:41:25.902Z,72.69
2017-10-12T18:42:06.438Z,73.08
2017-10-12T18:42:46.785Z,72.88
2017-10-12T18:43:27.268Z,72.98
2017-10-12T18:44:07.670Z,73.36
2017-10-12T18:44:48.002Z,73.46
2017-10-12T18:45:28.388Z,73.55
2017-10-12T18:46:08.808Z,73.27
2017-10-12T18:46:49.204Z,72.79
2017-10-12T18:47:29.602Z,73.75
2017-10-12T18:48:10.041Z,73.84
2017-10-12T18:48:50.553Z,73.55
2017-10-12T18:49:30.960Z,73.75
2017-10-12T18:50:11.413Z,73.75
2017-10-12T18:50:51.826Z,73.55
2017-10-12T18:51:32.263Z,73.65
2017-10-12T18:52:12.654Z,73.75
2017-10-12T18:52:53.107Z,74.22
2017-10-12T18:53:33.546Z,74.22
2017-10-12T18:54:13.936Z,74.09
2017-10-12T18:54:54.355Z,73.84
2017-10-12T18:55:34.725Z,73.8
2017-10-12T18:56:15.233Z,74.04
2017-10-12T18:56:55.695Z,74.51
2017-10-12T18:57:36.060Z,74.7
2017-10-12T18:58:16.457Z,74.13
2017-10-12T18:58:56.850Z,73.84
2017-10-12T18:59:37.331Z,73.27
2017-10-12T19:00:17.798Z,73.23
2017-10-12T19:00:58.161Z,73.27
2017-10-12T19:01:38.627Z,73.55
2017-10-12T19:02:19.021Z,73.71
2017-10-12T19:02:59.541Z,73.8
2017-10-12T19:03:39.846Z,73.99
2017-10-12T19:04:20.394Z,73.99
2017-10-12T19:05:00.743Z,74.19
2017-10-12T19:05:41.179Z,74.57
2017-10-12T19:06:21.588Z,73.9
2017-10-12T19:07:01.978Z,74.57
2017-10-12T19:08:22.824Z,74.57
2017-10-12T19:09:03.243Z,75.05
2017-10-12T19:09:43.636Z,74.28
2017-10-12T19:10:24.035Z,74.48
2017-10-12T19:11:04.390Z,74.66
2017-10-12T19:11:44.937Z,74.19
2017-10-12T19:12:25.249Z,74.38
2017-10-12T19:13:05.725Z,74.66
2017-10-12T19:13:46.081Z,74.38
2017-10-12T19:14:26.500Z,73.9
2017-10-12T19:15:06.912Z,73.99
2017-10-12T19:15:47.319Z,73.99
2017-10-12T19:16:27.775Z,74.09
2017-10-12T19:17:08.177Z,74.48
2017-10-12T19:17:48.639Z,74.76
2017-10-12T19:18:29.064Z,74.66
2017-10-12T19:19:09.530Z,74.85
2017-10-12T19:19:49.903Z,74.66
2017-10-12T19:20:30.351Z,74.76
2017-10-12T19:21:10.725Z,74.85
2017-10-12T19:21:51.128Z,75.24
2017-10-12T19:22:31.487Z,75.43
2017-10-12T19:23:11.929Z,75.68
2017-10-12T19:23:52.310Z,75.24
2017-10-12T19:24:32.741Z,75.71
2017-10-12T19:25:13.142Z,76.67
2017-10-12T19:25:53.587Z,76.2
2017-10-12T19:26:34.005Z,76.67
2017-10-12T19:27:14.424Z,76.48
2017-10-12T19:27:54.794Z,76.1
2017-10-12T19:29:15.609Z,75.62
2017-10-12T19:29:56.015Z,75.81
2017-10-12T19:30:36.565Z,75.62
2017-10-12T19:31:16.909Z,75.59
2017-10-12T19:31:57.307Z,75.81
2017-10-12T19:32:37.697Z,75.59
2017-10-12T19:33:18.145Z,75.87
2017-10-12T19:33:58.550Z,75.68
2017-10-12T19:34:39.019Z,75.68
2017-10-12T19:35:19.408Z,76.64
2017-10-12T19:35:59.849Z,76.54
2017-10-12T19:36:40.261Z,76.06
2017-10-12T19:37:20.644Z,76.45
2017-10-12T19:38:01.070Z,76.82
2017-10-12T19:38:41.528Z,77.5
2017-10-12T19:39:21.974Z,76.64
2017-10-12T19:40:02.386Z,77.01
2017-10-12T19:41:23.284Z,77.3
2017-10-12T19:42:03.666Z,77.5
2017-10-12T19:42:44.126Z,77.5
2017-10-12T19:43:24.563Z,77.78
2017-10-12T19:44:04.944Z,77.82
2017-10-12T19:44:45.377Z,77.3
2017-10-12T19:45:25.755Z,76.77
2017-10-12T19:46:06.170Z,77.06
2017-10-12T19:46:46.614Z,77.11
2017-10-12T19:47:27.056Z,77.4
2017-10-12T19:48:07.484Z,77.4
2017-10-12T19:48:47.930Z,76.73
2017-10-12T19:49:28.318Z,76.35
2017-10-12T19:50:08.721Z,77.21
2017-10-12T19:50:49.159Z,77.4
2017-10-12T19:51:29.513Z,77.4
2017-10-12T19:52:09.959Z,77.21
2017-10-12T19:52:50.382Z,77.3
2017-10-12T19:53:30.753Z,77.21
2017-10-12T19:54:11.169Z,77.3
2017-10-12T19:54:51.517Z,77.01
2017-10-12T19:55:32.001Z,77.45
2017-10-12T19:56:12.380Z,77.3
2017-10-12T19:56:52.809Z,77.59
2017-10-12T19:57:33.344Z,77.55
2017-10-12T19:58:13.823Z,77.87
2017-10-12T19:59:09.299Z,78.13
2017-10-12T19:59:34.663Z,78.74
2017-10-12T20:00:15.084Z,78.31
2017-10-12T20:00:55.469Z,77.74
2017-10-12T20:01:35.907Z,77.84
2017-10-12T20:02:16.356Z,77.74
2017-10-12T20:02:56.755Z,77.97
2017-10-12T20:03:37.192Z,78.36
2017-10-12T20:04:17.647Z,78.6
2017-10-12T20:04:58.065Z,78.13
2017-10-12T20:05:38.551Z,77.78
2017-10-12T20:06:18.986Z,77.55
2017-10-12T20:06:59.437Z,78.22
2017-10-12T20:07:39.833Z,78.36
2017-10-12T20:08:20.249Z,78.31
2017-10-12T20:09:00.795Z,78.31
2017-10-12T20:09:41.290Z,78.22
2017-10-12T20:10:21.648Z,77.94
2017-10-12T20:11:02.104Z,78.22
2017-10-12T20:11:42.525Z,77.94
2017-10-12T20:12:22.929Z,78.22
2017-10-12T20:13:03.317Z,78.51
2017-10-12T20:14:24.137Z,78.31
2017-10-12T20:15:04.494Z,78.7
2017-10-12T20:15:44.973Z,79.36
2017-10-12T20:16:25.394Z,78.79
2017-10-12T20:17:05.818Z,78.41
2017-10-12T20:17:46.170Z,78.79
2017-10-12T20:18:26.589Z,79.17
2017-10-12T20:19:07.068Z,79.36
2017-10-12T20:19:47.506Z,78.79
2017-10-12T20:20:27.890Z,78.79
2017-10-12T20:21:08.230Z,78.22
2017-10-12T20:21:48.618Z,78.79
2017-10-12T20:22:29.087Z,78.79
2017-10-12T20:23:09.586Z,78.99
2017-10-12T20:23:49.983Z,78.7
2017-10-12T20:24:30.425Z,79.08
2017-10-12T20:25:10.720Z,78.79
2017-10-12T20:25:51.141Z,78.79
2017-10-12T20:26:31.594Z,78.79
2017-10-12T20:27:11.937Z,79.65
2017-10-12T20:27:52.317Z,79.85
2017-10-12T20:28:32.729Z,79.56
2017-10-12T20:29:53.540Z,79.46
2017-10-12T20:30:33.903Z,79.36
2017-10-12T20:31:14.344Z,79.27
2017-10-12T20:31:54.809Z,79.65
2017-10-12T20:32:35.254Z,79.27
2017-10-12T20:33:15.628Z,79.27
2017-10-12T20:33:56.057Z,79.56
2017-10-12T20:34:36.679Z,79.27
2017-10-12T20:35:16.991Z,79.56
2017-10-12T20:35:57.388Z,79.75
2017-10-12T20:36:37.897Z,79.71
2017-10-12T20:37:18.224Z,80.19
2017-10-12T20:37:58.720Z,80.57
2017-10-12T20:38:39.071Z,80.57
2017-10-12T20:39:19.801Z,81.43
2017-10-12T20:40:00.079Z,80.28
2017-10-12T20:40:40.473Z,79.99
2017-10-12T20:41:20.929Z,80.28
2017-10-12T20:42:16.528Z,80.28
2017-10-12T20:42:41.846Z,80.57
2017-10-12T20:43:22.216Z,80.38
2017-10-12T20:44:03.846Z,80.95
2017-10-12T20:44:44.548Z,80.76
2017-10-12T20:45:24.995Z,81.14
2017-10-12T20:46:05.379Z,81.33
2017-10-12T20:46:46.027Z,81.04
2017-10-12T20:47:27.264Z,81.24
2017-10-12T20:48:07.755Z,81.04
2017-10-12T20:48:48.125Z,80.76
2017-10-12T20:51:22.981Z,81.81
2017-10-12T20:52:15.247Z,81.43
2017-10-12T20:53:08.000Z,81.43
2017-10-12T20:54:00.479Z,82.24
2017-10-12T20:55:46.721Z,82.19
2017-10-12T20:56:39.032Z,81.96
2017-10-12T20:57:31.514Z,81.86
2017-10-12T20:58:27.441Z,82.06
2017-10-12T20:59:20.276Z,82.72
2017-10-12T21:00:14.455Z,82.53
2017-10-12T21:01:06.778Z,82.06
2017-10-12T21:02:00.486Z,82.72
2017-10-12T21:02:53.289Z,82.72
2017-10-12T21:03:46.162Z,82.53
2017-10-12T21:04:38.402Z,82.63
2017-10-12T21:05:30.619Z,82.53
2017-10-12T21:06:24.833Z,82.72
2017-10-12T21:07:17.385Z,82.53
2017-10-12T21:08:10.075Z,82.63
2017-10-12T21:09:02.210Z,83.39
2017-10-12T21:09:54.258Z,83.2
2017-10-12T21:10:46.413Z,82.82
2017-10-12T21:11:38.697Z,83.01
2017-10-12T21:12:32.297Z,83.01
2017-10-12T21:13:25.218Z,82.91
2017-10-12T21:14:18.482Z,83.2
2017-10-12T21:15:10.338Z,83.29
2017-10-12T21:16:02.474Z,83.01
2017-10-12T21:16:54.952Z,83.11
2017-10-12T21:17:47.584Z,83.2
2017-10-12T21:18:39.942Z,82.91
2017-10-12T21:19:32.163Z,83.01
2017-10-12T21:20:24.299Z,83.2
2017-10-12T21:21:16.822Z,83.11
2017-10-12T21:22:09.100Z,82.91
2017-10-12T21:23:01.965Z,83.77
2017-10-12T21:23:53.974Z,83.87
2017-10-12T21:24:46.266Z,83.67
2017-10-12T21:25:38.742Z,83.87
2017-10-12T21:26:30.578Z,83.96
2017-10-12T21:27:22.367Z,83.87
2017-10-12T21:28:05.231Z,83.29
2017-10-12T21:28:45.560Z,83.2
2017-10-12T21:29:25.997Z,83.29
2017-10-12T21:30:06.471Z,83.87
2017-10-12T21:30:46.825Z,83.48
2017-10-12T21:31:27.227Z,83.48
2017-10-12T21:32:07.664Z,83.77
2017-10-12T21:32:48.116Z,83.14
2017-10-12T21:33:28.487Z,83.34
2017-10-12T21:34:09.126Z,83.05
2017-10-12T21:34:49.753Z,83.14
2017-10-12T21:35:30.130Z,83.2
2017-10-12T21:36:10.564Z,83.24
2017-10-12T21:36:51.044Z,82.95
2017-10-12T21:37:32.179Z,83.24
2017-10-12T21:38:12.643Z,82.86
2017-10-12T21:38:53.104Z,82.76
2017-10-12T21:39:33.529Z,82.76
2017-10-12T21:40:13.948Z,82.67
2017-10-12T21:40:54.362Z,82.67
2017-10-12T21:41:34.795Z,82.57
2017-10-12T21:42:15.176Z,82.76
2017-10-12T21:42:55.638Z,82.38
2017-10-12T21:43:36.198Z,82.67
2017-10-12T21:44:16.664Z,82.09
2017-10-12T21:44:57.150Z,82.19
2017-10-12T21:45:37.562Z,82.48
2017-10-12T21:46:18.047Z,82.67
2017-10-12T21:46:58.468Z,83.43
2017-10-12T21:47:38.827Z,83.24
2017-10-12T21:48:19.356Z,83.05
2017-10-12T21:48:59.742Z,83.24
2017-10-12T21:49:40.262Z,83.24
2017-10-12T21:50:20.696Z,82.86
2017-10-12T21:51:01.038Z,83.14
2017-10-12T21:51:41.510Z,83.24
2017-10-12T21:52:21.890Z,83.2
2017-10-12T21:53:02.336Z,83.05
2017-10-12T21:53:42.792Z,83.14
2017-10-12T21:54:23.176Z,82.95
2017-10-12T21:55:03.676Z,82.86
2017-10-12T21:55:44.119Z,83.14
2017-10-12T21:56:24.445Z,83.14
2017-10-12T21:57:04.905Z,83.24
2017-10-12T21:57:45.471Z,83.24
2017-10-12T21:58:26.001Z,83.24
2017-10-12T21:59:06.276Z,83.34
2017-10-12T21:59:46.812Z,83.24
2017-10-12T22:00:27.230Z,82.48
2017-10-12T22:01:07.678Z,82.57
2017-10-12T22:01:48.111Z,82.48
2017-10-12T22:02:28.433Z,82.38
2017-10-12T22:03:08.871Z,82.67
2017-10-12T22:03:49.312Z,82.29
2017-10-12T22:04:29.737Z,82
2017-10-12T22:05:10.139Z,82.38
2017-10-12T22:05:50.592Z,82.19
2017-10-12T22:06:30.982Z,82
2017-10-12T22:07:11.333Z,82.19
2017-10-12T22:07:51.848Z,82.19
2017-10-12T22:08:32.204Z,82.32
2017-10-12T22:09:12.920Z,81.52
2017-10-12T22:09:53.085Z,81.52
2017-10-12T22:10:33.547Z,81.71
2017-10-12T22:11:13.888Z,81.66
2017-10-12T22:11:54.370Z,81.71
2017-10-12T22:12:34.687Z,81.81
2017-10-12T22:13:15.214Z,81.71
2017-10-12T22:13:55.626Z,81.81
2017-10-12T22:14:35.974Z,82.09
2017-10-12T22:15:16.466Z,82.19
2017-10-12T22:15:56.960Z,82.19
2017-10-12T22:16:37.423Z,82
2017-10-12T22:17:17.907Z,82.23
2017-10-12T22:17:58.452Z,82.32
2017-10-12T22:18:38.752Z,82.04
2017-10-12T22:19:19.195Z,82.32
2017-10-12T22:19:59.814Z,82.19
2017-10-12T22:20:40.139Z,82.23
2017-10-12T22:21:20.610Z,82.04
2017-10-12T22:22:00.965Z,82.32
2017-10-12T22:22:41.495Z,82.23
2017-10-12T22:23:21.899Z,82.32
2017-10-12T22:24:02.387Z,82.14
2017-10-12T22:24:43.270Z,81.95
2017-10-12T22:25:23.455Z,82.52
2017-10-12T22:26:03.800Z,82.76
2017-10-12T22:26:44.176Z,82.14
2017-10-12T22:27:24.662Z,82.23
2017-10-12T22:28:05.093Z,82.42
2017-10-12T22:28:45.534Z,82.32
2017-10-12T22:29:26.011Z,82.23
2017-10-12T22:30:06.436Z,82.32
2017-10-12T22:30:46.828Z,82.32
2017-10-12T22:31:27.268Z,82.42
2017-10-12T22:32:07.590Z,82.42
2017-10-12T22:32:48.073Z,82.04
2017-10-12T22:33:28.421Z,82.42
2017-10-12T22:34:08.871Z,82.23
2017-10-12T22:34:49.400Z,82.32
2017-10-12T22:35:29.888Z,82.04
2017-10-12T22:36:10.381Z,81.76
2017-10-12T22:36:50.758Z,82.32
2017-10-12T22:37:31.263Z,81.85
2017-10-12T22:38:11.709Z,81.27
2017-10-12T22:38:52.048Z,82.14
2017-10-12T22:39:32.457Z,81.56
2017-10-12T22:40:12.800Z,81.95
2017-10-12T22:40:53.287Z,81.56
2017-10-12T22:41:33.829Z,81.56
2017-10-12T22:42:14.214Z,81.56
2017-10-12T22:42:54.715Z,81.27
2017-10-12T22:43:35.263Z,81.27
2017-10-12T22:44:15.571Z,81.09
2017-10-12T22:44:56.107Z,81.18
2017-10-12T22:45:36.462Z,81.18
2017-10-12T22:46:16.982Z,80.7
2017-10-12T22:46:57.458Z,80.7
2017-10-12T22:47:37.872Z,81.18
2017-10-12T22:48:18.251Z,80.99
2017-10-12T22:48:58.618Z,81.09
2017-10-12T22:49:39.090Z,81.37
2017-10-12T22:50:19.518Z,81.09
2017-10-12T22:50:59.905Z,81.09
2017-10-12T22:51:40.291Z,81.27
2017-10-12T22:52:20.711Z,81.47
2017-10-12T22:53:01.101Z,82.32
2017-10-12T22:53:41.507Z,82.04
2017-10-12T22:54:21.955Z,82.32
2017-10-12T22:55:02.357Z,82.52
2017-10-12T22:55:42.766Z,82.52
2017-10-12T22:56:23.165Z,82.81
2017-10-12T22:57:03.533Z,82.71
2017-10-12T22:57:43.985Z,82.71
2017-10-12T22:58:24.444Z,82.61
2017-10-12T22:59:04.875Z,82.61
2017-10-12T22:59:45.258Z,82.52
2017-10-12T23:00:25.726Z,82.42
2017-10-12T23:01:06.146Z,82.23
2017-10-12T23:01:46.565Z,82.32
2017-10-12T23:02:27.001Z,82.04
2017-10-12T23:03:07.485Z,82.04
2017-10-12T23:03:48.025Z,82.14
2017-10-12T23:04:28.428Z,82.23
2017-10-12T23:05:08.770Z,82.23
2017-10-12T23:05:49.290Z,82.37
2017-10-12T23:06:29.705Z,82.42
2017-10-12T23:07:10.182Z,82.42
2017-10-12T23:07:50.636Z,82.14
2017-10-12T23:08:31.042Z,82.23
2017-10-12T23:09:11.558Z,82.32
2017-10-12T23:09:51.934Z,82.42
2017-10-12T23:10:32.339Z,82.84
2017-10-12T23:11:12.758Z,82.32
2017-10-12T23:11:53.212Z,82.71
2017-10-12T23:12:33.642Z,83.38
2017-10-12T23:13:14.041Z,82.9
2017-10-12T23:13:54.658Z,83.18
2017-10-12T23:14:35.069Z,83.28
2017-10-12T23:15:15.595Z,83.28
2017-10-12T23:15:55.961Z,83.18
2017-10-12T23:16:36.460Z,83.18
2017-10-12T23:17:16.917Z,83.38
2017-10-12T23:17:57.282Z,83.47
2017-10-12T23:18:37.703Z,83.38
2017-10-12T23:19:18.117Z,83.09
2017-10-12T23:19:58.508Z,83
2017-10-12T23:20:38.918Z,83.33
2017-10-12T23:21:19.383Z,83.09
2017-10-12T23:21:59.836Z,82.81
2017-10-12T23:22:40.220Z,83.04
2017-10-12T23:23:20.555Z,83.13
2017-10-12T23:24:01.061Z,83.33
2017-10-12T23:24:41.481Z,82.94
2017-10-12T23:25:21.863Z,83
2017-10-12T23:26:02.243Z,83.23
2017-10-12T23:26:42.683Z,83.33
2017-10-12T23:27:23.054Z,83.23
2017-10-12T23:28:03.465Z,83.13
2017-10-12T23:28:43.919Z,83.33
2017-10-12T23:29:24.229Z,83.42
2017-10-12T23:30:04.684Z,82.94
2017-10-12T23:30:45.093Z,83.42
2017-10-12T23:31:25.601Z,83.13
2017-10-12T23:32:05.994Z,83.13
2017-10-12T23:32:46.581Z,83.33
2017-10-12T23:33:26.946Z,83.23
2017-10-12T23:34:07.388Z,83.42
2017-10-12T23:34:47.753Z,83.13
2017-10-12T23:35:28.222Z,82.75
2017-10-12T23:36:08.706Z,82.84
2017-10-12T23:36:49.143Z,82.75
2017-10-12T23:37:29.560Z,82.65
2017-10-12T23:38:09.979Z,82.75
2017-10-12T23:38:50.357Z,83.04
2017-10-12T23:39:30.800Z,82.75
2017-10-12T23:40:11.307Z,83.33
2017-10-12T23:40:51.642Z,83.33
2017-10-12T23:41:32.097Z,83.33
2017-10-12T23:42:12.586Z,83.33
2017-10-12T23:42:52.976Z,83.42
2017-10-12T23:43:33.505Z,82.65
2017-10-12T23:44:13.896Z,82.84
2017-10-12T23:44:54.434Z,83.42
2017-10-12T23:45:34.833Z,83.33
2017-10-12T23:46:15.287Z,82.56
2017-10-12T23:46:55.768Z,82.84
2017-10-12T23:47:36.158Z,82.84
2017-10-12T23:48:16.577Z,82.75
2017-10-12T23:48:56.987Z,83.23
2017-10-12T23:49:37.483Z,82.65
2017-10-12T23:50:17.935Z,82.75
2017-10-12T23:50:58.287Z,82.65
2017-10-12T23:51:38.731Z,82.65
2017-10-12T23:52:19.123Z,82.94
2017-10-12T23:52:59.518Z,82.65
2017-10-12T23:53:39.899Z,83.33
2017-10-12T23:54:20.303Z,83.23
2017-10-12T23:55:00.751Z,83.42
2017-10-12T23:55:41.196Z,83.51
2017-10-12T23:56:21.692Z,83.8
2017-10-12T23:57:02.060Z,83.7
2017-10-12T23:57:42.455Z,83.61
2017-10-12T23:58:23.084Z,83.61
2017-10-12T23:59:03.452Z,83.61
2017-10-12T23:59:43.816Z,83.33
